»·PEaware :: N281VT KSNA-KBUR

N281VT :: KSNA-KBUR

FLIGHT INFORMATION

Flight Status: Arrived
Operator: Privately registered:
United States
More flights under this callsign
Pilot: Gopalakrishna Pillai Sulekha S. (22834)
Aircraft: BEECH AIRCRAFT BARON
(BE58)
More flights by this aircraft type
Origin: KSNA John Wayne-Orange Co
United States
Destination: KBUR Bob Hope-Burbank
United States
More flights between these airports :: More routes between these airports
Route: SLI V23 POPPR SMO125 SMO SMO311 SILEX
File this flight plan on PilotEdge
Remarks: NO TEST
Altitude:
(Current/Filed)
4,500ft
Speed:
(Current/Filed)
150kts
Departed: 22-Mar-19 06:43 PM
Arrived: 22-Mar-19 07:19 PM
Distance/Time
Traveled:
40nm/0:36
Distance/Time
To Go:
Arrived

Flight Plot

Page will automatically refresh every two minutes.


Map Options




Map Legend


Flown Route
Filed Route
Departure Airport
Arrival Airport
Navaid (VOR, NDB)
Fix

Horizontal Profiles

Position Reports

Time Latitude Longitude Heading Altitude Ground
Speed
22-Mar-19 18:19 33.670743 -117.867805 36 60ft 0kts
22-Mar-19 18:20 33.670743 -117.867805 36 60ft 0kts
22-Mar-19 18:21 33.670743 -117.867805 36 60ft 0kts
22-Mar-19 18:22 33.670743 -117.867805 36 60ft 0kts
22-Mar-19 18:23 33.670743 -117.867805 36 60ft 0kts
22-Mar-19 18:24 33.670743 -117.867805 36 60ft 0kts
22-Mar-19 18:25 33.670743 -117.867805 36 60ft 0kts
22-Mar-19 18:26 33.670743 -117.867805 36 60ft 0kts
22-Mar-19 18:27 33.670743 -117.867805 36 60ft 0kts
22-Mar-19 18:28 33.670743 -117.867805 36 60ft 0kts
22-Mar-19 18:29 33.670743 -117.867805 36 60ft 0kts
22-Mar-19 18:30 33.670743 -117.867805 36 60ft 0kts
22-Mar-19 18:31 33.670743 -117.867805 36 60ft 0kts
22-Mar-19 18:32 33.670743 -117.867805 36 60ft 0kts
22-Mar-19 18:33 33.670743 -117.867805 36 60ft 0kts
22-Mar-19 18:34 33.670743 -117.867805 36 60ft 0kts
22-Mar-19 18:35 33.670743 -117.867805 36 60ft 0kts
22-Mar-19 18:36 33.670743 -117.867805 36 60ft 0kts
22-Mar-19 18:37 33.670743 -117.867805 36 60ft 0kts
22-Mar-19 18:38 33.672151 -117.868095 27 60ft 25kts
22-Mar-19 18:39 33.677258 -117.865084 27 60ft 27kts
22-Mar-19 18:40 33.679980 -117.863645 296 60ft 0kts
22-Mar-19 18:41 33.679980 -117.863645 296 60ft 0kts
22-Mar-19 18:42 33.679343 -117.864669 208 60ft 41kts
22-Mar-19 18:43 33.654641 -117.879305 235 811ft 137kts
22-Mar-19 18:44 33.633712 -117.921338 240 1792ft 149kts
22-Mar-19 18:45 33.640280 -117.960951 276 2797ft 128kts
22-Mar-19 18:46 33.643748 -118.002657 281 3800ft 123kts
22-Mar-19 18:47 33.655308 -118.044790 288 4164ft 149kts
22-Mar-19 18:48 33.672822 -118.088893 294 4154ft 137kts
22-Mar-19 18:49 33.696624 -118.124126 307 4158ft 135kts
22-Mar-19 18:50 33.721474 -118.157921 307 4158ft 134kts
22-Mar-19 18:51 33.745941 -118.191615 307 4158ft 133kts
22-Mar-19 18:52 33.769527 -118.225328 307 4157ft 131kts
22-Mar-19 18:53 33.793023 -118.258687 312 4165ft 130kts
22-Mar-19 18:54 33.824378 -118.281275 332 4165ft 134kts
22-Mar-19 18:55 33.858896 -118.304204 320 3965ft 138kts
22-Mar-19 18:56 33.886906 -118.334515 310 3964ft 133kts
22-Mar-19 18:57 33.915024 -118.363649 319 3965ft 134kts
22-Mar-19 18:58 33.944961 -118.390403 319 3965ft 133kts
22-Mar-19 18:59 33.973543 -118.418978 311 3965ft 134kts
22-Mar-19 19:00 34.000815 -118.450042 315 3965ft 136kts
22-Mar-19 19:01 34.032194 -118.475076 311 3965ft 135kts
22-Mar-19 19:02 34.064311 -118.499706 313 3966ft 135kts
22-Mar-19 19:03 34.091443 -118.530879 312 3956ft 127kts
22-Mar-19 19:04 34.113433 -118.555310 312 3961ft 100kts
22-Mar-19 19:05 34.132924 -118.578555 303 3971ft 101kts
22-Mar-19 19:06 34.150839 -118.607657 303 3966ft 111kts
22-Mar-19 19:07 34.168570 -118.637775 302 3944ft 107kts
22-Mar-19 19:08 34.184594 -118.666145 302 3947ft 100kts
22-Mar-19 19:09 34.204073 -118.684459 27 3955ft 105kts
22-Mar-19 19:10 34.204908 -118.649010 97 3947ft 115kts
22-Mar-19 19:11 34.195717 -118.612000 93 3954ft 118kts
22-Mar-19 19:12 34.194368 -118.570411 78 3883ft 132kts
22-Mar-19 19:13 34.197570 -118.518009 88 2999ft 175kts
22-Mar-19 19:14 34.196350 -118.478404 88 2576ft 98kts
22-Mar-19 19:15 34.195669 -118.444226 84 1751ft 109kts
22-Mar-19 19:16 34.196819 -118.408600 80 1094ft 94kts
22-Mar-19 19:17 34.197871 -118.375392 88 882ft 107kts
22-Mar-19 19:18 34.197148 -118.360305 178 714ft 0kts
22-Mar-19 19:19 34.196916 -118.360385 228 714ft 6kts
22-Mar-19 19:20 34.196063 -118.366225 122 721ft 2kts

Navigation Log

Ident Type
Flight plan parsing failed, navigation log unavailable